Angelina County Airport Lufkin US
ICAO: KLFK
IATA: LFK
Category: Medium
Scheduled Services: No

Elevation: 296 ft
TransAlt. 18000 ft.

Airport Communications:
ASOS:120.625
HOUSTON CNTR:134.8
MONTGOMERY CO RDO:122.2
CTAF/UNICOM:123

KLFK Zoom In..

If Map Doesn't Load, Click Here

Runways:

(A) RW 07 length 5400 ft width 100 ft
ILS 111.30 / hdg 70

(B) RW 15 length 4311 ft width 100 ft
---- / hdg 155

(C) RW 25 length 5400 ft width 100 ft
---- / hdg 250

(D) RW 33 length 4311 ft width 100 ft
---- / hdg 335

Location; KLFK
Day. 21 / Time. 14.53 Zulu
* Altimeter: 30.01
* Temperature: 27° c. 80.6°f.
* Wind from: 130° Speed 07 kn.
Dewpoint: 25° c.
Visibility: 9 Statute Miles.
Clouds: Clear (automated report).

KLFK 211453Z AUTO 13007KT 9SM CLR 27/25 A3001 RMK AO2 RAB20E37 SLP157 P0000 60000 T02670250 51008


Wind From 130°
Speed 07 kn.

 
 
jpsmedia.com for Web Design worldairports.se 2018   terms of use